createdAt,value
2023-05-10T00:00:10.257Z,99973.28
2023-05-10T00:02:36.804Z,99969.03
2023-05-10T00:05:03.480Z,99970.06
2023-05-10T00:07:30.136Z,99967.09
2023-05-10T00:09:56.494Z,99965.63
2023-05-10T00:12:22.886Z,99966.50
2023-05-10T00:14:49.420Z,99957.78
2023-05-10T00:17:15.814Z,99952.00
2023-05-10T00:19:42.170Z,99955.81
2023-05-10T00:22:08.703Z,99952.06
2023-05-10T00:24:35.063Z,99947.88
2023-05-10T00:27:01.631Z,99946.03
2023-05-10T00:29:29.352Z,99942.81
2023-05-10T00:31:55.834Z,99939.56
2023-05-10T00:34:22.262Z,99941.34
2023-05-10T00:36:48.649Z,99933.56
2023-05-10T00:39:15.030Z,99942.84
2023-05-10T00:41:41.422Z,99940.47
2023-05-10T00:44:07.794Z,99935.06
2023-05-10T00:46:34.452Z,99932.31
2023-05-10T00:49:00.901Z,99923.66
2023-05-10T00:51:27.250Z,99936.81
2023-05-10T00:53:53.680Z,99913.88
2023-05-10T00:56:21.476Z,99924.72
2023-05-10T00:58:47.807Z,99917.75
2023-05-10T01:01:14.226Z,99913.97
2023-05-10T01:03:40.800Z,99914.19
2023-05-10T01:06:07.296Z,99912.63
2023-05-10T01:08:33.671Z,99905.06
2023-05-10T01:11:00.017Z,99904.38
2023-05-10T01:13:34.853Z,99906.00
2023-05-10T01:16:03.342Z,99902.41
2023-05-10T01:18:34.223Z,99897.28
2023-05-10T01:21:08.908Z,99885.38
2023-05-10T01:24:06.953Z,99895.47
2023-05-10T01:27:01.921Z,99890.13
2023-05-10T01:29:47.068Z,99885.16
2023-05-10T01:32:25.945Z,99900.97
2023-05-10T01:35:33.513Z,99884.09
2023-05-10T01:38:14.382Z,99869.28
2023-05-10T01:40:45.178Z,99881.84
2023-05-10T01:43:14.681Z,99878.09
2023-05-10T01:46:02.225Z,99862.63
2023-05-10T01:48:28.582Z,99854.09
2023-05-10T01:50:55.100Z,99848.59
2023-05-10T01:53:21.463Z,99818.16
2023-05-10T01:55:49.568Z,99807.41
2023-05-10T01:58:20.153Z,99789.19
2023-05-10T02:00:47.286Z,99790.06
2023-05-10T02:03:13.732Z,99795.38
2023-05-10T02:05:40.129Z,99790.75
2023-05-10T02:08:07.722Z,99782.09
2023-05-10T02:10:37.230Z,99769.53
2023-05-10T02:13:04.130Z,99761.94
2023-05-10T02:15:30.571Z,99761.94
2023-05-10T02:17:57.123Z,99765.78
2023-05-10T02:20:24.094Z,99753.56
2023-05-10T02:22:51.511Z,99746.72
2023-05-10T02:25:18.880Z,99739.91
2023-05-10T02:27:45.281Z,99736.34
2023-05-10T02:30:11.841Z,99731.34
2023-05-10T02:32:38.212Z,99733.09
2023-05-10T02:35:06.450Z,99739.28
2023-05-10T02:37:33.288Z,99741.00
2023-05-10T02:39:59.779Z,99712.22
2023-05-10T02:42:29.154Z,99717.50
2023-05-10T02:44:57.928Z,99707.97
2023-05-10T02:47:24.298Z,99705.56
2023-05-10T02:49:50.751Z,99705.69
2023-05-10T02:52:20.292Z,99709.25
2023-05-10T02:54:47.265Z,99697.06
2023-05-10T02:57:19.561Z,99693.81
2023-05-10T02:59:46.379Z,99683.28
2023-05-10T03:02:15.968Z,99693.00
2023-05-10T03:04:42.433Z,99692.09
2023-05-10T03:07:08.945Z,99677.63
2023-05-10T03:09:35.441Z,99684.03
2023-05-10T03:12:01.910Z,99680.78
2023-05-10T03:14:50.213Z,99681.94
2023-05-10T03:17:40.154Z,99691.00
2023-05-10T03:20:27.707Z,99682.03
2023-05-10T03:22:57.201Z,99684.59
2023-05-10T03:25:23.552Z,99692.38
2023-05-10T03:27:50.146Z,99690.63
2023-05-10T03:30:17.115Z,99687.13
2023-05-10T03:32:43.659Z,99673.09
2023-05-10T03:35:10.871Z,99676.63
2023-05-10T03:37:37.232Z,99681.75
2023-05-10T03:40:03.977Z,99683.88
2023-05-10T03:42:30.631Z,99676.91
2023-05-10T03:44:57.095Z,99665.84
2023-05-10T03:47:23.444Z,99674.44
2023-05-10T03:49:49.868Z,99674.09
2023-05-10T03:52:16.404Z,99675.72
2023-05-10T03:54:42.779Z,99667.59
2023-05-10T03:57:09.333Z,99672.78
2023-05-10T03:59:35.782Z,99657.31
2023-05-10T04:02:02.170Z,99667.66
2023-05-10T04:04:28.718Z,99674.47
2023-05-10T04:06:55.813Z,99678.88
2023-05-10T04:09:22.170Z,99663.63
2023-05-10T04:11:48.711Z,99659.78
2023-05-10T04:14:15.108Z,99651.88
2023-05-10T04:16:41.524Z,99656.06
2023-05-10T04:19:08.548Z,99649.41
2023-05-10T04:21:34.906Z,99654.31
2023-05-10T04:24:01.227Z,99663.63
2023-05-10T04:26:27.807Z,99650.75
2023-05-10T04:28:54.151Z,99637.03
2023-05-10T04:31:20.709Z,99648.66
2023-05-10T04:33:47.500Z,99645.53
2023-05-10T04:36:13.827Z,99660.09
2023-05-10T04:38:40.229Z,99649.19
2023-05-10T04:41:07.942Z,99640.13
2023-05-10T04:43:34.330Z,99635.72
2023-05-10T04:46:00.747Z,99675.50
2023-05-10T04:48:27.169Z,99683.13
2023-05-10T04:50:53.549Z,99670.34
2023-05-10T04:53:19.898Z,99696.09
2023-05-10T04:55:47.170Z,99683.84
2023-05-10T04:58:13.699Z,99684.25
2023-05-10T05:00:40.285Z,99694.00
2023-05-10T05:03:07.249Z,99705.16
2023-05-10T05:05:33.721Z,99720.94
2023-05-10T05:08:00.080Z,99721.78
2023-05-10T05:10:26.689Z,99721.22
2023-05-10T05:12:53.041Z,99742.69
2023-05-10T05:15:19.446Z,99757.22
2023-05-10T05:17:46.069Z,99772.09
2023-05-10T05:20:12.667Z,99764.28
2023-05-10T05:22:39.103Z,99758.84
2023-05-10T05:25:06.504Z,99769.22
2023-05-10T05:27:32.922Z,99728.19
2023-05-10T05:29:59.368Z,99738.44
2023-05-10T05:32:26.025Z,99724.47
2023-05-10T05:34:52.447Z,99683.91
2023-05-10T05:37:19.893Z,99700.50
2023-05-10T05:39:46.545Z,99677.75
2023-05-10T05:42:13.426Z,99686.41
2023-05-10T05:44:39.869Z,99683.03
2023-05-10T05:47:06.773Z,99657.41
2023-05-10T05:49:33.441Z,99653.75
2023-05-10T05:52:03.574Z,99637.22
2023-05-10T05:54:30.473Z,99615.22
2023-05-10T05:57:01.414Z,99561.31
2023-05-10T05:59:28.267Z,99571.09
2023-05-10T06:01:54.997Z,99547.06
2023-05-10T06:04:21.577Z,99589.38
2023-05-10T06:06:47.979Z,99602.34
2023-05-10T06:09:14.524Z,99582.06
2023-05-10T06:11:40.920Z,99615.34
2023-05-10T06:14:08.728Z,99572.91
2023-05-10T06:16:35.675Z,99542.41
2023-05-10T06:19:02.287Z,99516.88
2023-05-10T06:21:28.667Z,99500.88
2023-05-10T06:23:55.216Z,99607.72
2023-05-10T06:26:21.865Z,99619.97
2023-05-10T06:28:48.237Z,99575.09
2023-05-10T06:31:14.895Z,99615.00
2023-05-10T06:33:41.584Z,99574.88
2023-05-10T06:36:08.149Z,99591.28
2023-05-10T06:38:34.764Z,99574.53
2023-05-10T06:41:01.683Z,99607.59
2023-05-10T06:43:29.553Z,99620.34
2023-05-10T06:45:56.122Z,99600.47
2023-05-10T06:48:22.586Z,99640.25
2023-05-10T06:50:49.078Z,99694.63
2023-05-10T06:53:15.708Z,99738.47
2023-05-10T06:55:42.140Z,99735.38
2023-05-10T06:58:08.532Z,99675.28
2023-05-10T07:00:34.952Z,99609.19
2023-05-10T07:03:01.395Z,99600.88
2023-05-10T07:05:28.878Z,99531.66
2023-05-10T07:07:55.775Z,99465.06
2023-05-10T07:10:22.238Z,99357.06
2023-05-10T07:12:48.984Z,99231.66
2023-05-10T07:15:17.474Z,99075.47
2023-05-10T07:17:45.911Z,98850.53
2023-05-10T07:20:13.056Z,98500.66
2023-05-10T07:22:39.674Z,98322.31
2023-05-10T07:25:06.736Z,98367.34
2023-05-10T07:27:33.504Z,98459.13
2023-05-10T07:29:59.958Z,98372.78
2023-05-10T07:32:26.516Z,98163.63
2023-05-10T07:34:53.031Z,97801.81
2023-05-10T07:37:19.649Z,97561.00
2023-05-10T07:39:48.788Z,97738.44
2023-05-10T07:42:15.278Z,97843.00
2023-05-10T07:44:41.835Z,97710.59
2023-05-10T07:47:08.434Z,97694.13
2023-05-10T07:49:34.856Z,97644.69
2023-05-10T07:52:01.714Z,97495.38
2023-05-10T07:54:28.116Z,97431.63
2023-05-10T07:56:54.631Z,97323.28
2023-05-10T07:59:21.321Z,97031.19
2023-05-10T08:01:47.820Z,96799.47
2023-05-10T08:04:14.345Z,96609.88
2023-05-10T08:06:41.372Z,96468.06
2023-05-10T08:09:07.938Z,96304.31
2023-05-10T08:11:35.170Z,95991.88
2023-05-10T08:14:01.953Z,95824.16
2023-05-10T08:16:28.510Z,95341.16
2023-05-10T08:18:56.250Z,94878.19
2023-05-10T08:21:22.905Z,94266.28
2023-05-10T08:23:49.878Z,94024.16
2023-05-10T08:26:16.404Z,93847.19
2023-05-10T08:28:43.024Z,93682.88
2023-05-10T08:31:09.514Z,93467.38
2023-05-10T08:33:36.096Z,93408.94
2023-05-10T08:36:02.716Z,93269.13
2023-05-10T08:38:29.152Z,93073.69
2023-05-10T08:40:59.549Z,92821.16
2023-05-10T08:43:30.275Z,92545.50
2023-05-10T08:45:57.557Z,92422.63
2023-05-10T08:48:24.895Z,92234.03
2023-05-10T08:50:53.420Z,91834.63
2023-05-10T08:53:19.812Z,91595.69
2023-05-10T08:55:46.281Z,91638.78
2023-05-10T08:58:12.933Z,91715.38
2023-05-10T09:00:39.397Z,91832.97
2023-05-10T09:03:06.162Z,91957.69
2023-05-10T09:05:32.959Z,92056.09
2023-05-10T09:08:02.284Z,92193.47
2023-05-10T09:10:29.032Z,92307.13
2023-05-10T09:12:59.192Z,92207.41
2023-05-10T09:15:25.982Z,92051.59
2023-05-10T09:17:52.393Z,91905.03
2023-05-10T09:20:18.996Z,91883.03
2023-05-10T09:22:45.687Z,91794.09
2023-05-10T09:25:13.756Z,91640.94
2023-05-10T09:27:41.136Z,91473.34
2023-05-10T09:30:08.320Z,91251.13
2023-05-10T09:32:41.875Z,91137.09
2023-05-10T09:35:18.957Z,91039.13
2023-05-10T09:37:47.159Z,91020.25
2023-05-10T09:40:21.253Z,91019.16
2023-05-10T09:43:01.566Z,91015.59
2023-05-10T09:45:29.434Z,91040.75
2023-05-10T09:47:56.347Z,91034.59
2023-05-10T09:50:23.088Z,90973.81
2023-05-10T09:52:59.643Z,90925.69
2023-05-10T09:55:46.063Z,90918.69
2023-05-10T09:58:13.097Z,90912.84
2023-05-10T10:00:41.034Z,90940.09
2023-05-10T10:03:07.724Z,90971.38
2023-05-10T10:05:35.481Z,91009.91
2023-05-10T10:08:04.324Z,91027.41
2023-05-10T10:10:30.702Z,90992.47
2023-05-10T10:12:57.131Z,91008.84
2023-05-10T10:15:23.792Z,91063.06
2023-05-10T10:17:50.791Z,91096.09
2023-05-10T10:20:17.741Z,91209.44
2023-05-10T10:22:44.761Z,91276.28
2023-05-10T10:25:12.625Z,91313.56
2023-05-10T10:27:38.958Z,91427.44
2023-05-10T10:30:14.373Z,91566.69
2023-05-10T10:33:20.075Z,91676.47
2023-05-10T10:35:54.213Z,91627.31
2023-05-10T10:38:20.717Z,91649.00
2023-05-10T10:40:47.645Z,91625.31
2023-05-10T10:43:27.814Z,91607.66
2023-05-10T10:46:17.790Z,91600.72
2023-05-10T10:48:52.541Z,91634.41
2023-05-10T10:51:18.963Z,91710.03
2023-05-10T10:53:45.467Z,91793.66
2023-05-10T10:56:14.520Z,91766.94
2023-05-10T10:58:41.228Z,91683.22
2023-05-10T11:01:20.714Z,91749.09
2023-05-10T11:03:59.616Z,91739.44
2023-05-10T11:06:33.420Z,91728.75
2023-05-10T11:09:00.171Z,91809.53
2023-05-10T11:11:26.570Z,91921.41
2023-05-10T11:13:53.019Z,92093.16
2023-05-10T11:16:27.736Z,92258.53
2023-05-10T11:19:03.288Z,92508.19
2023-05-10T11:21:33.547Z,92517.66
2023-05-10T11:24:00.808Z,92677.19
2023-05-10T11:26:31.807Z,92671.97
2023-05-10T11:29:00.043Z,92600.88
2023-05-10T11:31:27.994Z,92601.41
2023-05-10T11:34:00.317Z,92603.50
2023-05-10T11:36:30.410Z,92701.50
2023-05-10T11:38:57.297Z,92807.38
2023-05-10T11:41:24.337Z,92896.22
2023-05-10T11:43:51.511Z,92765.53
2023-05-10T11:46:20.627Z,92873.59
2023-05-10T11:48:48.428Z,93008.69
2023-05-10T11:51:14.765Z,93120.44
2023-05-10T11:53:41.150Z,93141.59
2023-05-10T11:56:11.148Z,93060.22
2023-05-10T11:58:38.401Z,93197.56
2023-05-10T12:01:06.049Z,93218.16
2023-05-10T12:03:32.898Z,93384.78
2023-05-10T12:05:59.679Z,93597.69
2023-05-10T12:08:27.002Z,93552.84
2023-05-10T12:10:54.525Z,93511.94
2023-05-10T12:13:21.359Z,93839.59
2023-05-10T12:15:47.839Z,94127.03
2023-05-10T12:18:14.991Z,94134.25
2023-05-10T12:20:41.652Z,93965.75
2023-05-10T12:23:09.745Z,94038.50
2023-05-10T12:25:37.665Z,94187.00
2023-05-10T12:28:05.105Z,94229.13
2023-05-10T12:30:32.587Z,94237.97
2023-05-10T12:33:02.819Z,94607.66
2023-05-10T12:35:32.327Z,94868.09
2023-05-10T12:37:59.101Z,94695.31
2023-05-10T12:40:25.721Z,94593.97
2023-05-10T12:42:53.003Z,94639.31
2023-05-10T12:45:19.561Z,95039.88
2023-05-10T12:47:46.165Z,94920.66
2023-05-10T12:50:12.542Z,95394.25
2023-05-10T12:52:38.887Z,95582.03
2023-05-10T12:55:05.631Z,95706.72
2023-05-10T12:57:32.241Z,95776.56
2023-05-10T12:59:58.686Z,95873.59
2023-05-10T13:02:25.179Z,95872.81
2023-05-10T13:04:51.704Z,95967.28
2023-05-10T13:07:18.126Z,96099.56
2023-05-10T13:09:44.573Z,96179.31
2023-05-10T13:12:11.109Z,96067.16
2023-05-10T13:14:37.587Z,96204.66
2023-05-10T13:17:04.215Z,96158.41
2023-05-10T13:19:30.749Z,95950.28
2023-05-10T13:21:57.151Z,95741.41
2023-05-10T13:24:23.768Z,95886.09
2023-05-10T13:26:50.331Z,95882.47
2023-05-10T13:29:18.864Z,96187.78
2023-05-10T13:31:48.596Z,96368.53
2023-05-10T13:34:15.016Z,96546.88
2023-05-10T13:36:41.438Z,96616.84
2023-05-10T13:39:08.064Z,96736.44
2023-05-10T13:41:34.953Z,96505.59
2023-05-10T13:44:01.328Z,96395.81
2023-05-10T13:46:27.725Z,96666.13
2023-05-10T13:48:54.106Z,96677.44
2023-05-10T13:51:20.945Z,96687.72
2023-05-10T13:53:48.090Z,96691.66
2023-05-10T13:56:14.994Z,96568.88
2023-05-10T13:58:41.427Z,96660.72
2023-05-10T14:01:07.926Z,96628.28
2023-05-10T14:03:34.399Z,96515.28
2023-05-10T14:06:00.986Z,96563.94
2023-05-10T14:08:28.051Z,96623.19
2023-05-10T14:10:54.438Z,96578.53
2023-05-10T14:13:20.774Z,96628.00
2023-05-10T14:15:47.179Z,96459.75
2023-05-10T14:18:13.608Z,96501.31
2023-05-10T14:20:40.015Z,96375.06
2023-05-10T14:23:06.747Z,96466.72
2023-05-10T14:25:34.103Z,96722.28
2023-05-10T14:28:00.552Z,96793.91
2023-05-10T14:30:26.982Z,96624.28
2023-05-10T14:32:54.980Z,96772.53
2023-05-10T14:35:21.927Z,96773.81
2023-05-10T14:37:48.464Z,96765.81
2023-05-10T14:40:16.002Z,96829.72
2023-05-10T14:42:43.351Z,96726.38
2023-05-10T14:45:10.675Z,96790.44
2023-05-10T14:47:37.033Z,96899.47
2023-05-10T14:50:03.500Z,96809.25
2023-05-10T14:52:30.886Z,96946.47
2023-05-10T14:54:59.969Z,96893.78
2023-05-10T14:57:26.333Z,96930.91
2023-05-10T14:59:52.903Z,96870.22
2023-05-10T15:02:19.704Z,96939.47
2023-05-10T15:04:46.502Z,96850.22
2023-05-10T15:07:15.698Z,96993.38
2023-05-10T15:09:42.080Z,96837.75
2023-05-10T15:12:08.517Z,97063.47
2023-05-10T15:14:37.241Z,97299.06
2023-05-10T15:17:03.832Z,97382.19
2023-05-10T15:19:30.362Z,97180.91
2023-05-10T15:21:56.812Z,97014.69
2023-05-10T15:24:23.157Z,97028.41
2023-05-10T15:26:49.507Z,96995.72
2023-05-10T15:29:20.656Z,97123.16
2023-05-10T15:31:50.860Z,97157.09
2023-05-10T15:34:17.502Z,97075.31
2023-05-10T15:36:43.926Z,97180.63
2023-05-10T15:39:10.613Z,97125.22
2023-05-10T15:41:37.061Z,97228.38
2023-05-10T15:44:03.524Z,97148.38
2023-05-10T15:46:30.139Z,97267.94
2023-05-10T15:48:57.617Z,97338.56
2023-05-10T15:51:23.996Z,97163.44
2023-05-10T15:54:00.760Z,97453.84
2023-05-10T15:56:34.293Z,97470.78
2023-05-10T15:59:00.683Z,97453.69
2023-05-10T16:01:27.175Z,97467.09
2023-05-10T16:03:53.690Z,97454.69
2023-05-10T16:06:20.070Z,97450.53
2023-05-10T16:08:46.448Z,97463.97
2023-05-10T16:11:12.965Z,97452.19
2023-05-10T16:13:39.478Z,97386.25
2023-05-10T16:16:08.795Z,97317.31
2023-05-10T16:18:35.767Z,97335.66
2023-05-10T16:21:02.328Z,97425.00
2023-05-10T16:23:28.792Z,97384.75
2023-05-10T16:25:55.320Z,97421.38
2023-05-10T16:28:21.999Z,97365.03
2023-05-10T16:30:48.736Z,97343.16
2023-05-10T16:33:15.313Z,97330.72
2023-05-10T16:35:41.716Z,97452.81
2023-05-10T16:38:08.119Z,97506.81
2023-05-10T16:40:34.545Z,97460.72
2023-05-10T16:43:01.257Z,97410.38
2023-05-10T16:45:27.688Z,97336.88
2023-05-10T16:47:54.782Z,97283.88
2023-05-10T16:50:21.364Z,97202.41
2023-05-10T16:52:47.811Z,97237.69
2023-05-10T16:55:14.217Z,97162.69
2023-05-10T16:57:40.647Z,97097.13
2023-05-10T17:00:08.494Z,97040.22
2023-05-10T17:02:35.205Z,96984.50
2023-05-10T17:05:01.609Z,96881.16
2023-05-10T17:07:29.312Z,96774.00
2023-05-10T17:09:55.816Z,96714.03
2023-05-10T17:12:22.310Z,96703.69
2023-05-10T17:14:48.710Z,96630.31
2023-05-10T17:17:15.187Z,96563.56
2023-05-10T17:19:44.914Z,96591.69
2023-05-10T17:22:12.659Z,96580.81
2023-05-10T17:24:39.019Z,96546.81
2023-05-10T17:27:05.548Z,96546.53
2023-05-10T17:29:32.102Z,96527.03
2023-05-10T17:31:59.127Z,96552.84
2023-05-10T17:34:25.622Z,96496.31
2023-05-10T17:36:52.090Z,96478.72
2023-05-10T17:39:18.466Z,96459.50
2023-05-10T17:41:44.933Z,96436.56
2023-05-10T17:44:13.128Z,96394.16
2023-05-10T17:46:39.549Z,96342.50
2023-05-10T17:49:05.957Z,96255.47
2023-05-10T17:51:32.554Z,96133.69
2023-05-10T17:53:58.964Z,96081.88
2023-05-10T17:56:25.472Z,96072.66
2023-05-10T17:58:51.949Z,96132.97
2023-05-10T18:01:19.795Z,96158.56
2023-05-10T18:03:49.216Z,96127.25
2023-05-10T18:06:17.909Z,96056.31
2023-05-10T18:08:44.961Z,96067.50
2023-05-10T18:11:11.391Z,96023.59
2023-05-10T18:13:38.194Z,96073.53
2023-05-10T18:16:06.145Z,96020.72
2023-05-10T18:18:32.581Z,96083.66
2023-05-10T18:20:59.140Z,96033.28
2023-05-10T18:23:26.390Z,96086.47
2023-05-10T18:25:52.863Z,95980.41
2023-05-10T18:28:19.544Z,95956.75
2023-05-10T18:30:46.193Z,95892.94
2023-05-10T18:33:12.778Z,95946.47
2023-05-10T18:35:40.203Z,95909.16
2023-05-10T18:38:06.962Z,95902.63
2023-05-10T18:40:33.445Z,95909.25
2023-05-10T18:43:00.020Z,95866.66
2023-05-10T18:45:26.506Z,95788.50
2023-05-10T18:47:52.987Z,95787.25
2023-05-10T18:50:19.796Z,95820.91
2023-05-10T18:52:46.730Z,95780.31
2023-05-10T18:55:13.447Z,95802.25
2023-05-10T18:57:41.789Z,95839.38
2023-05-10T19:00:10.388Z,95796.13
2023-05-10T19:02:37.586Z,95732.19
2023-05-10T19:05:04.288Z,95742.13
2023-05-10T19:07:30.853Z,95815.38
2023-05-10T19:09:57.322Z,95812.56
2023-05-10T19:12:23.731Z,95823.72
2023-05-10T19:14:50.144Z,95779.06
2023-05-10T19:17:19.578Z,95683.63
2023-05-10T19:19:46.191Z,95553.25
2023-05-10T19:22:12.832Z,95437.94
2023-05-10T19:24:39.259Z,95400.19
2023-05-10T19:27:05.677Z,95346.19
2023-05-10T19:29:32.221Z,95276.41
2023-05-10T19:31:58.705Z,95224.03
2023-05-10T19:34:25.128Z,95150.63
2023-05-10T19:36:51.556Z,95072.72
2023-05-10T19:39:17.959Z,94978.41
2023-05-10T19:41:44.411Z,94948.19
2023-05-10T19:44:10.950Z,94917.78
2023-05-10T19:46:37.431Z,94901.94
2023-05-10T19:49:04.005Z,94867.88
2023-05-10T19:51:30.424Z,94871.16
2023-05-10T19:53:57.228Z,94859.41
2023-05-10T19:56:23.621Z,94749.09
2023-05-10T19:58:50.142Z,94673.69
2023-05-10T20:01:16.558Z,94641.25
2023-05-10T20:03:42.978Z,94640.88
2023-05-10T20:06:09.558Z,94570.31
2023-05-10T20:08:36.032Z,94586.13
2023-05-10T20:11:03.781Z,94584.94
2023-05-10T20:13:30.569Z,94541.13
2023-05-10T20:15:58.109Z,94513.38
2023-05-10T20:18:24.821Z,94530.59
2023-05-10T20:20:58.985Z,94547.06
2023-05-10T20:23:25.366Z,94526.63
2023-05-10T20:25:51.982Z,94486.94
2023-05-10T20:28:21.156Z,94441.72
2023-05-10T20:30:47.608Z,94437.84
2023-05-10T20:33:15.661Z,94444.34
2023-05-10T20:35:42.389Z,94437.13
2023-05-10T20:38:08.771Z,94408.94
2023-05-10T20:40:36.350Z,94383.63
2023-05-10T20:43:03.449Z,94355.66
2023-05-10T20:45:29.821Z,94363.19
2023-05-10T20:47:56.359Z,94351.25
2023-05-10T20:50:22.770Z,94333.84
2023-05-10T20:52:52.182Z,94324.34
2023-05-10T20:55:19.120Z,94308.53
2023-05-10T20:57:47.046Z,94331.81
2023-05-10T21:00:14.462Z,94347.16
2023-05-10T21:02:43.351Z,94382.66
2023-05-10T21:05:10.041Z,94404.53
2023-05-10T21:07:36.583Z,94400.31
2023-05-10T21:10:03.223Z,94396.44
2023-05-10T21:12:29.708Z,94389.16
2023-05-10T21:14:56.171Z,94376.00
2023-05-10T21:17:22.711Z,94356.75
2023-05-10T21:19:50.314Z,94331.22
2023-05-10T21:22:17.186Z,94303.69
2023-05-10T21:24:43.784Z,94265.66
2023-05-10T21:27:10.611Z,94232.66
2023-05-10T21:29:37.094Z,94199.81
2023-05-10T21:32:03.687Z,94163.53
2023-05-10T21:34:30.142Z,94136.59
2023-05-10T21:36:56.642Z,94138.88
2023-05-10T21:39:23.180Z,94115.59
2023-05-10T21:41:49.696Z,94090.53
2023-05-10T21:44:16.175Z,94079.31
2023-05-10T21:46:42.550Z,94017.03
2023-05-10T21:49:09.072Z,93950.63
2023-05-10T21:51:35.784Z,93882.59
2023-05-10T21:54:02.273Z,93773.19
2023-05-10T21:56:28.802Z,93703.16
2023-05-10T21:58:55.166Z,93681.06
2023-05-10T22:01:21.618Z,93675.66
2023-05-10T22:03:48.333Z,93683.47
2023-05-10T22:06:14.754Z,93694.44
2023-05-10T22:08:41.131Z,93666.09
2023-05-10T22:11:07.533Z,93596.06
2023-05-10T22:13:33.907Z,93512.63
2023-05-10T22:16:00.531Z,93453.94
2023-05-10T22:18:26.948Z,93445.47
2023-05-10T22:20:53.362Z,93467.00
2023-05-10T22:23:19.706Z,93446.97
2023-05-10T22:25:46.071Z,93444.34
2023-05-10T22:28:12.408Z,93471.63
2023-05-10T22:30:38.755Z,93519.94
2023-05-10T22:33:05.417Z,93591.78
2023-05-10T22:35:32.092Z,93616.97
2023-05-10T22:37:58.523Z,93619.97
2023-05-10T22:40:24.960Z,93608.31
2023-05-10T22:42:51.839Z,93581.94
2023-05-10T22:45:18.174Z,93592.34
2023-05-10T22:47:44.833Z,93626.41
2023-05-10T22:50:11.213Z,93649.16
2023-05-10T22:52:39.284Z,93676.84
2023-05-10T22:55:07.264Z,93702.75
2023-05-10T22:57:33.890Z,93710.09
2023-05-10T23:00:00.259Z,93712.59
2023-05-10T23:02:27.210Z,93711.22
2023-05-10T23:04:53.622Z,93700.94
2023-05-10T23:07:20.008Z,93711.53
2023-05-10T23:09:46.788Z,93725.94
2023-05-10T23:12:13.131Z,93767.88
2023-05-10T23:14:39.814Z,93781.66
2023-05-10T23:17:06.195Z,93823.81
2023-05-10T23:19:32.591Z,93831.06
2023-05-10T23:21:59.432Z,93834.72
2023-05-10T23:24:26.286Z,93843.03
2023-05-10T23:26:52.609Z,93836.19
2023-05-10T23:29:19.072Z,93830.38
2023-05-10T23:31:49.001Z,93804.09
2023-05-10T23:34:15.392Z,93754.75
2023-05-10T23:36:42.171Z,93724.84
2023-05-10T23:39:08.705Z,93712.94
2023-05-10T23:41:35.138Z,93699.81
2023-05-10T23:44:02.509Z,93683.28
2023-05-10T23:46:29.052Z,93695.00
2023-05-10T23:48:55.379Z,93695.81
2023-05-10T23:51:21.741Z,93676.41
2023-05-10T23:53:48.284Z,93655.38
2023-05-10T23:56:14.651Z,93630.75
2023-05-10T23:58:40.994Z,93623.88
